43  °F
Temperature
6  °C
Temperature
6  °C
 Dewpoint
43  °F
  Dewpoint
100  %
 Humidity
  Temperature
6  mph
Wind Speed
5  kts
Wind Speed
10  km/h
Wind Speed
2.7  m/s
Wind Speed
70°
East North
East

Wind Speed
Light Rain
Showers
Pressure 29.76 (inHG) - 1007.82 (mb)
Visibility 5.0 (mi) - 8.0 (km)

Sky Conditions
KPCW
Location Erie-Ottawa International 5 mi (8.05 km)
Metar :KPCW 290515Z AUTO 07005KT 5SM -RA BKN003 OVC035 06/06 A2976 RMK AO2
Sun 29th March 01:15 am

Nearest Airport
https://www.checkwx.com/weather/KPCW
  Metar Aviation API Data Provided by https://www.checkwx.com/ Original CSS/SVG/PHP scripts by weather34.com © 2015-2020